createdAt,value
2018-09-28T00:00:56.085Z,20.31
2018-09-28T00:03:25.896Z,20.33
2018-09-28T00:05:56.326Z,20.32
2018-09-28T00:08:26.348Z,20.29
2018-09-28T00:10:56.429Z,20.28
2018-09-28T00:13:26.434Z,20.30
2018-09-28T00:15:56.001Z,20.38
2018-09-28T00:18:25.824Z,20.39
2018-09-28T00:20:55.905Z,20.35
2018-09-28T00:23:25.324Z,20.38
2018-09-28T00:25:55.320Z,20.32
2018-09-28T00:28:25.102Z,20.28
2018-09-28T00:30:55.094Z,20.19
2018-09-28T00:33:24.649Z,20.12
2018-09-28T00:35:55.228Z,20.10
2018-09-28T00:38:25.566Z,20.06
2018-09-28T00:40:55.171Z,20.03
2018-09-28T00:43:24.740Z,20.04
2018-09-28T00:45:54.788Z,20.04
2018-09-28T00:48:24.413Z,20.01
2018-09-28T00:50:54.148Z,20.02
2018-09-28T00:53:24.208Z,19.95
2018-09-28T00:55:54.015Z,19.94
2018-09-28T00:58:23.685Z,19.90
2018-09-28T01:00:53.307Z,19.90
2018-09-28T01:03:22.909Z,19.91
2018-09-28T01:05:52.527Z,19.82
2018-09-28T01:08:22.249Z,19.81
2018-09-28T01:10:51.885Z,19.85
2018-09-28T01:13:21.625Z,19.79
2018-09-28T01:15:51.776Z,19.75
2018-09-28T01:18:21.543Z,19.71
2018-09-28T01:20:51.260Z,19.69
2018-09-28T01:23:21.342Z,19.70
2018-09-28T01:25:51.097Z,19.73
2018-09-28T01:28:21.305Z,19.65
2018-09-28T01:30:50.923Z,19.62
2018-09-28T01:33:20.471Z,19.65
2018-09-28T01:35:49.889Z,19.63
2018-09-28T01:38:20.007Z,19.62
2018-09-28T01:40:49.756Z,19.59
2018-09-28T01:43:19.296Z,19.53
2018-09-28T01:45:49.033Z,19.56
2018-09-28T01:48:18.665Z,19.55
2018-09-28T01:50:48.361Z,19.55
2018-09-28T01:53:17.981Z,19.50
2018-09-28T01:55:47.544Z,19.48
2018-09-28T01:58:17.480Z,19.49
2018-09-28T02:00:47.916Z,19.44
2018-09-28T02:03:17.517Z,19.41
2018-09-28T02:05:47.437Z,19.42
2018-09-28T02:08:17.362Z,19.39
2018-09-28T02:10:47.039Z,19.36
2018-09-28T02:13:17.311Z,19.34
2018-09-28T02:15:46.997Z,19.34
2018-09-28T02:18:16.978Z,19.33
2018-09-28T02:20:46.568Z,19.31
2018-09-28T02:23:16.224Z,19.31
2018-09-28T02:25:46.025Z,19.25
2018-09-28T02:28:15.685Z,19.27
2018-09-28T02:30:45.281Z,19.25
2018-09-28T02:33:15.419Z,19.23
2018-09-28T02:35:44.975Z,19.20
2018-09-28T02:38:14.797Z,19.18
2018-09-28T02:40:44.921Z,19.21
2018-09-28T02:43:14.516Z,19.18
2018-09-28T02:45:44.272Z,19.18
2018-09-28T02:48:14.065Z,19.16
2018-09-28T02:50:43.606Z,19.13
2018-09-28T02:53:17.616Z,19.12
2018-09-28T02:55:48.603Z,19.12
2018-09-28T02:58:18.314Z,19.09
2018-09-28T03:00:50.243Z,19.08
2018-09-28T03:03:20.039Z,19.07
2018-09-28T03:05:50.224Z,19.06
2018-09-28T03:08:20.444Z,19.04
2018-09-28T03:10:49.913Z,19.03
2018-09-28T03:13:19.803Z,19.02
2018-09-28T03:15:49.347Z,18.98
2018-09-28T03:18:19.435Z,18.99
2018-09-28T03:20:49.013Z,18.98
2018-09-28T03:23:19.662Z,18.97
2018-09-28T03:25:49.258Z,18.94
2018-09-28T03:28:20.108Z,18.93
2018-09-28T03:30:49.764Z,18.92
2018-09-28T03:33:19.722Z,18.92
2018-09-28T03:35:49.795Z,18.92
2018-09-28T03:38:19.385Z,18.88
2018-09-28T03:40:48.985Z,18.87
2018-09-28T03:43:18.451Z,18.87
2018-09-28T03:45:48.382Z,18.86
2018-09-28T03:48:18.556Z,18.86
2018-09-28T03:50:48.399Z,18.81
2018-09-28T03:53:18.079Z,18.82
2018-09-28T03:55:47.609Z,18.80
2018-09-28T03:58:17.099Z,18.78
2018-09-28T04:00:46.794Z,18.77
2018-09-28T04:03:17.332Z,18.79
2018-09-28T04:05:47.174Z,18.76
2018-09-28T04:08:16.849Z,18.74
2018-09-28T04:10:46.483Z,18.73
2018-09-28T04:13:16.211Z,18.73
2018-09-28T04:15:45.871Z,18.71
2018-09-28T04:18:16.016Z,18.68
2018-09-28T04:20:46.034Z,18.69
2018-09-28T04:23:15.803Z,18.67
2018-09-28T04:25:47.473Z,18.64
2018-09-28T04:28:16.906Z,18.62
2018-09-28T04:30:46.841Z,18.61
2018-09-28T04:33:17.010Z,18.59
2018-09-28T04:35:46.576Z,18.59
2018-09-28T04:38:16.370Z,18.65
2018-09-28T04:40:46.128Z,18.66
2018-09-28T04:43:22.256Z,18.63
2018-09-28T04:46:01.702Z,18.65
2018-09-28T04:48:31.390Z,18.71
2018-09-28T04:51:01.186Z,18.71
2018-09-28T04:53:31.370Z,18.75
2018-09-28T04:56:01.086Z,18.80
2018-09-28T04:58:31.067Z,18.83
2018-09-28T05:01:00.983Z,18.84
2018-09-28T05:03:32.007Z,18.87
2018-09-28T05:06:01.633Z,18.91
2018-09-28T05:08:31.644Z,18.95
2018-09-28T05:11:01.479Z,19.00
2018-09-28T05:13:31.963Z,19.02
2018-09-28T05:16:04.060Z,19.05
2018-09-28T05:18:34.898Z,19.08
2018-09-28T05:21:06.030Z,19.14
2018-09-28T05:23:35.616Z,19.18
2018-09-28T05:26:05.911Z,19.20
2018-09-28T05:28:36.323Z,19.22
2018-09-28T05:31:06.459Z,19.26
2018-09-28T05:33:36.183Z,19.30
2018-09-28T05:36:06.033Z,19.32
2018-09-28T05:38:35.526Z,19.35
2018-09-28T05:41:06.414Z,19.41
2018-09-28T05:43:36.697Z,19.41
2018-09-28T05:46:07.244Z,19.45
2018-09-28T05:48:36.848Z,19.51
2018-09-28T05:51:08.520Z,19.55
2018-09-28T05:53:40.926Z,19.58
2018-09-28T05:56:11.247Z,19.57
2018-09-28T05:58:46.135Z,19.66
2018-09-28T06:01:20.554Z,19.68
2018-09-28T06:03:55.195Z,19.70
2018-09-28T06:06:25.288Z,19.73
2018-09-28T06:08:54.997Z,19.76
2018-09-28T06:11:24.626Z,19.79
2018-09-28T06:13:55.227Z,19.82
2018-09-28T06:16:25.070Z,19.84
2018-09-28T06:18:54.979Z,19.91
2018-09-28T06:21:24.700Z,19.93
2018-09-28T06:23:54.550Z,19.95
2018-09-28T06:26:24.274Z,20.01
2018-09-28T06:28:53.856Z,20.01
2018-09-28T06:31:23.377Z,20.04
2018-09-28T06:33:53.059Z,20.01
2018-09-28T06:36:23.338Z,20.09
2018-09-28T06:38:52.831Z,20.10
2018-09-28T06:41:22.855Z,20.14
2018-09-28T06:43:53.070Z,20.15
2018-09-28T06:46:23.095Z,20.17
2018-09-28T06:48:52.876Z,20.21
2018-09-28T06:51:23.223Z,20.22
2018-09-28T06:53:52.779Z,20.20
2018-09-28T06:56:23.868Z,20.25
2018-09-28T06:58:53.766Z,20.30
2018-09-28T07:01:26.014Z,20.32
2018-09-28T07:03:56.060Z,20.34
2018-09-28T07:06:25.755Z,20.34
2018-09-28T07:08:55.728Z,20.34
2018-09-28T07:11:25.485Z,20.37
2018-09-28T07:13:55.471Z,20.38
2018-09-28T07:16:25.210Z,20.43
2018-09-28T07:18:55.071Z,20.42
2018-09-28T07:21:24.969Z,20.43
2018-09-28T07:23:55.403Z,20.44
2018-09-28T07:26:25.076Z,20.44
2018-09-28T07:28:56.469Z,20.45
2018-09-28T07:31:26.911Z,20.47
2018-09-28T07:33:58.057Z,20.49
2018-09-28T07:36:30.433Z,20.50
2018-09-28T07:39:00.493Z,20.52
2018-09-28T07:44:08.707Z,20.53
2018-09-28T07:46:38.196Z,20.57
2018-09-28T07:49:07.883Z,20.57
2018-09-28T07:51:38.345Z,20.57
2018-09-28T07:54:08.499Z,20.59
2018-09-28T07:56:38.977Z,20.62
2018-09-28T07:59:08.817Z,20.68
2018-09-28T08:01:39.094Z,20.62
2018-09-28T08:04:09.094Z,20.71
2018-09-28T08:06:39.007Z,20.68
2018-09-28T08:09:10.214Z,20.71
2018-09-28T08:11:40.132Z,20.69
2018-09-28T08:14:10.092Z,20.72
2018-09-28T08:16:40.349Z,20.71
2018-09-28T08:19:10.721Z,20.75
2018-09-28T08:21:40.525Z,20.73
2018-09-28T08:24:11.145Z,20.68
2018-09-28T08:26:40.970Z,20.69
2018-09-28T08:29:10.786Z,20.68
2018-09-28T08:31:40.301Z,20.63
2018-09-28T08:34:10.306Z,20.60
2018-09-28T08:36:40.078Z,20.58
2018-09-28T08:39:10.948Z,20.60
2018-09-28T08:41:41.202Z,20.57
2018-09-28T08:44:10.797Z,20.63
2018-09-28T08:46:40.686Z,20.64
2018-09-28T08:49:11.029Z,20.64
2018-09-28T08:51:40.663Z,20.66
2018-09-28T08:54:10.621Z,20.64
2018-09-28T08:56:40.563Z,20.66
2018-09-28T08:59:10.645Z,20.60
2018-09-28T09:01:41.300Z,20.68
2018-09-28T09:04:11.345Z,20.63
2018-09-28T09:06:41.148Z,20.70
2018-09-28T09:09:13.534Z,20.73
2018-09-28T09:11:43.653Z,20.74
2018-09-28T09:14:14.103Z,20.74
2018-09-28T09:16:44.508Z,20.73
2018-09-28T09:19:14.602Z,20.74
2018-09-28T09:24:23.816Z,20.74
2018-09-28T09:26:54.104Z,20.78
2018-09-28T09:29:24.218Z,20.75
2018-09-28T09:31:53.720Z,20.77
2018-09-28T09:34:23.785Z,20.82
2018-09-28T09:36:53.723Z,20.86
2018-09-28T09:39:25.040Z,20.81
2018-09-28T09:41:54.908Z,20.80
2018-09-28T09:44:24.477Z,20.90
2018-09-28T09:46:54.580Z,20.91
2018-09-28T09:49:25.175Z,20.87
2018-09-28T09:51:55.202Z,20.87
2018-09-28T09:54:24.883Z,20.79
2018-09-28T09:56:54.618Z,20.88
2018-09-28T09:59:24.736Z,20.80
2018-09-28T10:01:59.994Z,20.86
2018-09-28T10:04:29.858Z,20.84
2018-09-28T10:06:59.434Z,20.91
2018-09-28T10:09:30.421Z,20.91
2018-09-28T10:12:07.516Z,20.96
2018-09-28T10:14:37.519Z,20.92
2018-09-28T10:17:08.088Z,20.91
2018-09-28T10:19:39.002Z,20.91
2018-09-28T10:22:09.905Z,21.02
2018-09-28T10:24:40.698Z,20.85
2018-09-28T10:27:10.931Z,20.90
2018-09-28T10:29:41.079Z,20.94
2018-09-28T10:32:11.150Z,20.95
2018-09-28T10:34:40.820Z,20.86
2018-09-28T10:37:10.595Z,20.87
2018-09-28T10:39:40.584Z,21.01
2018-09-28T10:42:10.728Z,20.97
2018-09-28T10:44:41.351Z,20.98
2018-09-28T10:47:12.354Z,20.96
2018-09-28T10:49:44.155Z,21.06
2018-09-28T10:52:14.478Z,21.03
2018-09-28T10:54:44.196Z,20.99
2018-09-28T10:57:14.825Z,20.98
2018-09-28T10:59:44.692Z,21.05
2018-09-28T11:02:15.095Z,21.01
2018-09-28T11:04:45.443Z,21.10
2018-09-28T11:07:16.189Z,21.02
2018-09-28T11:09:46.403Z,21.04
2018-09-28T11:12:16.483Z,21.11
2018-09-28T11:14:48.375Z,21.17
2018-09-28T11:17:18.801Z,21.17
2018-09-28T11:19:50.102Z,21.23
2018-09-28T11:22:20.754Z,21.19
2018-09-28T11:24:50.819Z,21.24
2018-09-28T11:27:20.684Z,21.29
2018-09-28T11:29:50.458Z,21.27
2018-09-28T11:32:20.717Z,21.34
2018-09-28T11:34:50.544Z,21.28
2018-09-28T11:37:20.993Z,21.31
2018-09-28T11:39:51.016Z,21.35
2018-09-28T11:42:20.651Z,21.32
2018-09-28T11:44:50.678Z,21.39
2018-09-28T11:47:21.079Z,21.42
2018-09-28T11:49:52.436Z,21.37
2018-09-28T11:52:22.297Z,21.41
2018-09-28T11:54:52.972Z,21.40
2018-09-28T11:57:22.627Z,21.47
2018-09-28T11:59:55.153Z,21.46
2018-09-28T12:02:25.481Z,21.50
2018-09-28T12:04:55.528Z,21.47
2018-09-28T12:07:25.619Z,21.43
2018-09-28T12:09:55.911Z,21.39
2018-09-28T12:12:25.691Z,21.33
2018-09-28T12:14:55.395Z,21.38
2018-09-28T12:17:25.527Z,21.39
2018-09-28T12:19:56.657Z,21.45
2018-09-28T12:22:39.746Z,21.40
2018-09-28T12:25:09.412Z,21.42
2018-09-28T12:27:39.161Z,21.43
2018-09-28T12:30:08.727Z,21.42
2018-09-28T12:32:38.496Z,21.48
2018-09-28T12:35:08.468Z,21.44
2018-09-28T12:37:38.671Z,21.47
2018-09-28T12:40:08.856Z,21.45
2018-09-28T12:42:38.981Z,21.45
2018-09-28T12:45:08.479Z,21.43
2018-09-28T12:47:38.628Z,21.52
2018-09-28T12:50:08.300Z,21.49
2018-09-28T12:52:38.987Z,21.49
2018-09-28T12:55:09.483Z,21.54
2018-09-28T12:57:39.152Z,21.55
2018-09-28T13:00:09.626Z,21.56
2018-09-28T13:02:39.248Z,21.59
2018-09-28T13:05:09.076Z,21.53
2018-09-28T13:07:38.820Z,21.59
2018-09-28T13:10:11.011Z,21.60
2018-09-28T13:12:55.320Z,21.58
2018-09-28T13:15:34.759Z,21.64
2018-09-28T13:18:04.693Z,21.69
2018-09-28T13:20:34.459Z,21.59
2018-09-28T13:23:04.085Z,21.63
2018-09-28T13:25:33.792Z,21.65
2018-09-28T13:28:03.435Z,21.67
2018-09-28T13:30:34.331Z,21.61
2018-09-28T13:33:04.807Z,21.64
2018-09-28T13:35:35.091Z,21.69
2018-09-28T13:38:04.691Z,21.75
2018-09-28T13:40:34.737Z,21.74
2018-09-28T13:43:04.728Z,21.76
2018-09-28T13:45:35.714Z,21.78
2018-09-28T13:48:05.769Z,21.77
2018-09-28T13:53:12.062Z,21.82
2018-09-28T13:55:42.332Z,21.77
2018-09-28T13:58:12.197Z,21.81
2018-09-28T14:00:42.241Z,21.83
2018-09-28T14:05:41.507Z,21.82
2018-09-28T14:08:11.252Z,21.84
2018-09-28T14:10:41.832Z,21.80
2018-09-28T14:13:11.818Z,21.80
2018-09-28T14:15:42.078Z,21.82
2018-09-28T14:18:12.155Z,21.78
2018-09-28T14:20:41.894Z,21.83
2018-09-28T14:23:11.451Z,21.76
2018-09-28T14:25:41.764Z,21.72
2018-09-28T14:28:11.556Z,21.73
2018-09-28T14:30:41.435Z,21.75
2018-09-28T14:33:11.379Z,21.62
2018-09-28T14:35:41.038Z,21.62
2018-09-28T14:38:11.210Z,21.74
2018-09-28T14:40:40.987Z,21.80
2018-09-28T14:43:10.488Z,21.82
2018-09-28T14:45:40.040Z,21.84
2018-09-28T14:50:38.607Z,21.83
2018-09-28T14:53:09.173Z,21.87
2018-09-28T14:55:39.176Z,21.86
2018-09-28T14:58:08.815Z,21.86
2018-09-28T15:00:39.117Z,21.86
2018-09-28T15:03:08.823Z,21.81
2018-09-28T15:05:38.465Z,21.83
2018-09-28T15:08:08.429Z,21.81
2018-09-28T15:10:38.866Z,21.79
2018-09-28T15:13:09.438Z,21.78
2018-09-28T15:15:39.887Z,21.71
2018-09-28T15:18:09.363Z,21.66
2018-09-28T15:20:40.085Z,21.63
2018-09-28T15:23:09.948Z,21.65
2018-09-28T15:25:39.529Z,21.59
2018-09-28T15:28:10.699Z,21.55
2018-09-28T15:30:41.399Z,21.60
2018-09-28T15:33:10.898Z,21.75
2018-09-28T15:35:40.740Z,21.76
2018-09-28T15:38:10.877Z,21.72
2018-09-28T15:40:41.178Z,21.65
2018-09-28T15:43:11.088Z,21.62
2018-09-28T15:45:41.705Z,21.62
2018-09-28T15:48:11.706Z,21.63
2018-09-28T15:50:41.878Z,21.58
2018-09-28T15:53:11.455Z,21.61
2018-09-28T15:55:41.692Z,21.63
2018-09-28T15:58:11.723Z,21.56
2018-09-28T16:00:43.092Z,21.51
2018-09-28T16:03:12.966Z,21.56
2018-09-28T16:05:42.709Z,21.52
2018-09-28T16:08:12.404Z,21.48
2018-09-28T16:10:42.072Z,21.47
2018-09-28T16:13:12.178Z,21.42
2018-09-28T16:15:41.775Z,21.45
2018-09-28T16:18:11.653Z,21.38
2018-09-28T16:20:41.183Z,21.33
2018-09-28T16:23:11.115Z,21.28
2018-09-28T16:25:41.213Z,21.42
2018-09-28T16:28:10.850Z,21.47
2018-09-28T16:30:40.316Z,21.44
2018-09-28T16:33:09.906Z,21.37
2018-09-28T16:35:40.038Z,21.33
2018-09-28T16:38:09.651Z,21.34
2018-09-28T16:40:39.259Z,21.26
2018-09-28T16:43:08.966Z,21.23
2018-09-28T16:45:38.683Z,21.14
2018-09-28T16:48:08.190Z,21.18
2018-09-28T16:50:37.876Z,21.10
2018-09-28T16:53:07.413Z,21.08
2018-09-28T16:55:37.159Z,21.06
2018-09-28T16:58:06.930Z,21.03
2018-09-28T17:00:38.176Z,21.01
2018-09-28T17:03:08.490Z,20.93
2018-09-28T17:05:38.010Z,20.91
2018-09-28T17:08:08.147Z,20.94
2018-09-28T17:10:38.099Z,21.01
2018-09-28T17:13:07.733Z,21.01
2018-09-28T17:15:37.869Z,20.97
2018-09-28T17:18:07.647Z,20.92
2018-09-28T17:20:41.077Z,20.96
2018-09-28T17:23:12.111Z,20.87
2018-09-28T17:25:41.720Z,20.83
2018-09-28T17:28:11.441Z,20.79
2018-09-28T17:30:41.247Z,20.79
2018-09-28T17:33:11.616Z,20.79
2018-09-28T17:35:43.535Z,20.73
2018-09-28T17:38:13.817Z,20.71
2018-09-28T17:40:44.435Z,20.73
2018-09-28T17:43:14.325Z,20.69
2018-09-28T17:45:44.036Z,20.71
2018-09-28T17:48:14.169Z,20.64
2018-09-28T17:50:44.372Z,20.66
2018-09-28T17:53:14.233Z,20.65
2018-09-28T17:55:44.490Z,20.68
2018-09-28T17:58:14.046Z,20.62
2018-09-28T18:00:44.314Z,20.58
2018-09-28T18:03:17.806Z,20.62
2018-09-28T18:05:51.582Z,20.62
2018-09-28T18:08:27.775Z,20.54
2018-09-28T18:10:57.791Z,20.50
2018-09-28T18:13:27.332Z,20.53
2018-09-28T18:15:57.176Z,20.53
2018-09-28T18:18:28.674Z,20.49
2018-09-28T18:21:00.165Z,20.48
2018-09-28T18:23:32.916Z,20.47
2018-09-28T18:26:03.164Z,20.58
2018-09-28T18:28:33.231Z,20.49
2018-09-28T18:31:03.322Z,20.42
2018-09-28T18:33:32.794Z,20.37
2018-09-28T18:36:03.186Z,20.44
2018-09-28T18:38:33.389Z,20.53
2018-09-28T18:41:03.199Z,20.56
2018-09-28T18:43:39.715Z,20.42
2018-09-28T18:46:09.778Z,20.39
2018-09-28T18:48:40.012Z,20.38
2018-09-28T18:51:10.669Z,20.38
2018-09-28T18:53:40.469Z,20.42
2018-09-28T18:56:11.964Z,20.41
2018-09-28T18:58:42.108Z,20.43
2018-09-28T19:01:11.754Z,20.40
2018-09-28T19:03:41.739Z,20.43
2018-09-28T19:06:12.603Z,20.43
2018-09-28T19:08:43.014Z,20.45
2018-09-28T19:11:12.644Z,20.49
2018-09-28T19:13:43.383Z,20.45
2018-09-28T19:16:13.167Z,20.44
2018-09-28T19:18:42.791Z,20.43
2018-09-28T19:23:52.703Z,20.44
2018-09-28T19:26:22.331Z,20.43
2018-09-28T19:28:54.504Z,20.42
2018-09-28T19:31:24.314Z,20.42
2018-09-28T19:33:54.449Z,20.41
2018-09-28T19:36:24.431Z,20.40
2018-09-28T19:38:54.243Z,20.38
2018-09-28T19:41:24.010Z,20.37
2018-09-28T19:43:54.347Z,20.37
2018-09-28T19:46:24.177Z,20.36
2018-09-28T19:48:53.942Z,20.36
2018-09-28T19:51:23.987Z,20.34
2018-09-28T19:53:54.892Z,20.32
2018-09-28T19:56:24.962Z,20.31
2018-09-28T19:58:54.595Z,20.28
2018-09-28T20:01:24.735Z,20.26
2018-09-28T20:03:54.618Z,20.25
2018-09-28T20:06:24.188Z,20.24
2018-09-28T20:08:54.154Z,20.21
2018-09-28T20:11:24.186Z,20.20
2018-09-28T20:13:55.169Z,20.15
2018-09-28T20:16:26.066Z,20.17
2018-09-28T20:18:56.340Z,20.15
2018-09-28T20:21:26.622Z,20.13
2018-09-28T20:23:56.438Z,20.12
2018-09-28T20:26:26.447Z,20.11
2018-09-28T20:28:56.313Z,20.13
2018-09-28T20:31:26.101Z,20.13
2018-09-28T20:33:56.327Z,20.13
2018-09-28T20:36:26.170Z,20.08
2018-09-28T20:38:56.269Z,20.07
2018-09-28T20:41:26.584Z,19.96
2018-09-28T20:43:56.708Z,19.87
2018-09-28T20:46:26.524Z,19.83
2018-09-28T20:48:56.725Z,19.79
2018-09-28T20:51:26.435Z,19.78
2018-09-28T20:53:56.907Z,19.75
2018-09-28T20:56:27.151Z,19.68
2018-09-28T20:58:57.180Z,19.66
2018-09-28T21:01:27.154Z,19.61
2018-09-28T21:03:56.863Z,19.57
2018-09-28T21:06:26.524Z,19.56
2018-09-28T21:08:56.264Z,19.52
2018-09-28T21:11:26.779Z,19.49
2018-09-28T21:13:57.078Z,19.47
2018-09-28T21:16:27.096Z,19.46
2018-09-28T21:18:56.858Z,19.42
2018-09-28T21:21:27.186Z,19.41
2018-09-28T21:23:56.857Z,19.37
2018-09-28T21:26:27.398Z,19.32
2018-09-28T21:28:57.339Z,19.32
2018-09-28T21:31:26.902Z,19.28
2018-09-28T21:33:56.625Z,19.27
2018-09-28T21:36:26.499Z,19.22
2018-09-28T21:38:56.938Z,19.23
2018-09-28T21:41:27.062Z,19.17
2018-09-28T21:43:57.670Z,19.17
2018-09-28T21:46:29.704Z,19.12
2018-09-28T21:49:00.543Z,19.08
2018-09-28T21:51:30.366Z,19.08
2018-09-28T21:54:00.456Z,19.06
2018-09-28T21:56:30.445Z,18.98
2018-09-28T21:59:00.338Z,18.95
2018-09-28T22:01:30.455Z,18.99
2018-09-28T22:04:00.191Z,18.89
2018-09-28T22:06:30.348Z,18.86
2018-09-28T22:09:00.158Z,18.88
2018-09-28T22:11:30.102Z,18.84
2018-09-28T22:13:59.729Z,18.83
2018-09-28T22:16:29.780Z,18.80
2018-09-28T22:18:59.832Z,18.79
2018-09-28T22:21:29.824Z,18.77
2018-09-28T22:23:59.787Z,18.76
2018-09-28T22:26:30.326Z,18.68
2018-09-28T22:28:59.785Z,18.69
2018-09-28T22:31:30.422Z,18.64
2018-09-28T22:34:00.032Z,18.68
2018-09-28T22:36:29.562Z,18.59
2018-09-28T22:39:00.145Z,18.56
2018-09-28T22:41:29.874Z,18.53
2018-09-28T22:43:59.719Z,18.53
2018-09-28T22:46:29.771Z,18.49
2018-09-28T22:48:59.509Z,18.46
2018-09-28T22:51:29.585Z,18.43
2018-09-28T22:53:59.210Z,18.43
2018-09-28T22:56:28.736Z,18.39
2018-09-28T22:58:59.070Z,18.36
2018-09-28T23:01:29.339Z,18.33
2018-09-28T23:03:59.099Z,18.31
2018-09-28T23:06:29.255Z,18.29
2018-09-28T23:08:59.157Z,18.25
2018-09-28T23:11:28.727Z,18.25
2018-09-28T23:13:58.460Z,18.21
2018-09-28T23:16:28.010Z,18.18
2018-09-28T23:18:58.198Z,18.17
2018-09-28T23:21:27.881Z,18.14
2018-09-28T23:23:57.475Z,18.10
2018-09-28T23:26:27.142Z,18.10
2018-09-28T23:28:56.700Z,18.06
2018-09-28T23:31:26.416Z,18.04
2018-09-28T23:33:55.971Z,18.03
2018-09-28T23:36:25.894Z,18.01
2018-09-28T23:38:55.479Z,18.00
2018-09-28T23:41:25.192Z,17.95
2018-09-28T23:43:54.887Z,17.95
2018-09-28T23:46:24.487Z,17.91
2018-09-28T23:48:54.165Z,17.90
2018-09-28T23:51:23.813Z,17.88
2018-09-28T23:53:53.628Z,17.85
2018-09-28T23:56:23.358Z,17.83
2018-09-28T23:58:53.706Z,17.81
